sensor_id;sensor_type;location;lat;lon;timestamp;pressure;altitude;pressure_sealevel;temperature;humidity
39681;BME280;26327;42.550;23.120;2023-04-09T07:51:58;92998.25;;;16.55;nan
39681;BME280;26327;42.550;23.120;2023-04-09T07:54:24;92975.59;;;16.92;nan
39681;BME280;26327;42.550;23.120;2023-04-09T07:56:50;92982.59;;;16.98;nan
39681;BME280;26327;42.550;23.120;2023-04-09T07:59:15;92928.72;;;18.05;nan
39681;BME280;26327;42.550;23.120;2023-04-09T08:01:41;92901.66;;;19.05;nan
39681;BME280;26327;42.550;23.120;2023-04-09T08:04:07;92971.91;;;19.86;nan
39681;BME280;26327;42.550;23.120;2023-04-09T08:06:33;92988.31;;;20.57;nan
39681;BME280;26327;42.550;23.120;2023-04-09T08:08:58;92944.00;;;20.02;nan
39681;BME280;26327;42.550;23.120;2023-04-09T08:11:24;92975.28;;;20.67;nan
39681;BME280;26327;42.550;23.120;2023-04-09T08:13:53;92981.50;;;21.23;nan
39681;BME280;26327;42.550;23.120;2023-04-09T08:16:19;92977.41;;;22.58;nan
39681;BME280;26327;42.550;23.120;2023-04-09T08:18:46;92960.47;;;23.18;nan
39681;BME280;26327;42.550;23.120;2023-04-09T08:21:11;92930.00;;;23.20;nan
39681;BME280;26327;42.550;23.120;2023-04-09T08:23:36;92928.63;;;23.13;nan
39681;BME280;26327;42.550;23.120;2023-04-09T08:26:02;92934.91;;;21.33;nan
39681;BME280;26327;42.550;23.120;2023-04-09T08:28:28;92977.94;;;20.67;nan
39681;BME280;26327;42.550;23.120;2023-04-09T08:30:53;92929.13;;;18.32;nan
39681;BME280;26327;42.550;23.120;2023-04-09T08:33:18;92981.94;;;19.02;nan
39681;BME280;26327;42.550;23.120;2023-04-09T08:35:44;92926.25;;;19.45;nan
39681;BME280;26327;42.550;23.120;2023-04-09T08:38:09;92907.59;;;20.61;nan
39681;BME280;26327;42.550;23.120;2023-04-09T08:40:35;92959.16;;;21.69;nan
39681;BME280;26327;42.550;23.120;2023-04-09T08:43:04;92926.28;;;21.82;nan
39681;BME280;26327;42.550;23.120;2023-04-09T08:45:30;92959.44;;;20.50;nan
39681;BME280;26327;42.550;23.120;2023-04-09T08:47:56;92972.78;;;18.93;nan
39681;BME280;26327;42.550;23.120;2023-04-09T08:50:24;92976.28;;;18.75;nan
39681;BME280;26327;42.550;23.120;2023-04-09T08:52:50;92967.19;;;18.30;nan
39681;BME280;26327;42.550;23.120;2023-04-09T08:55:15;92892.94;;;17.19;nan
39681;BME280;26327;42.550;23.120;2023-04-09T08:57:41;92950.94;;;16.93;nan
39681;BME280;26327;42.550;23.120;2023-04-09T09:00:07;92964.63;;;16.14;nan
39681;BME280;26327;42.550;23.120;2023-04-09T09:02:34;92957.38;;;16.16;nan
39681;BME280;26327;42.550;23.120;2023-04-09T09:04:59;92953.72;;;15.79;nan
39681;BME280;26327;42.550;23.120;2023-04-09T09:07:28;92967.97;;;15.89;nan
39681;BME280;26327;42.550;23.120;2023-04-09T09:10:01;92900.63;;;14.94;nan
39681;BME280;26327;42.550;23.120;2023-04-09T09:12:41;92976.25;;;15.22;nan
39681;BME280;26327;42.550;23.120;2023-04-09T09:15:27;92875.75;;;14.25;nan
39681;BME280;26327;42.550;23.120;2023-04-09T09:17:55;92965.59;;;14.24;nan
39681;BME280;26327;42.550;23.120;2023-04-09T09:20:21;92959.81;;;14.48;nan
39681;BME280;26327;42.550;23.120;2023-04-09T09:22:52;92873.81;;;13.46;nan
39681;BME280;26327;42.550;23.120;2023-04-09T09:25:17;92965.44;;;14.45;nan
39681;BME280;26327;42.550;23.120;2023-04-09T09:27:47;92945.31;;;14.46;nan
39681;BME280;26327;42.550;23.120;2023-04-09T09:30:24;92951.94;;;14.29;nan
39681;BME280;26327;42.550;23.120;2023-04-09T09:32:51;92955.94;;;15.17;nan
39681;BME280;26327;42.550;23.120;2023-04-09T09:35:18;92948.53;;;14.81;nan
39681;BME280;26327;42.550;23.120;2023-04-09T09:37:44;92938.91;;;15.97;nan
39681;BME280;26327;42.550;23.120;2023-04-09T09:40:25;92948.06;;;15.10;nan
39681;BME280;26327;42.550;23.120;2023-04-09T09:42:56;92957.72;;;14.17;nan
39681;BME280;26327;42.550;23.120;2023-04-09T09:45:23;92948.84;;;13.85;nan
39681;BME280;26327;42.550;23.120;2023-04-09T09:47:50;92933.84;;;11.79;nan
39681;BME280;26327;42.550;23.120;2023-04-09T09:50:16;92955.28;;;12.45;nan
39681;BME280;26327;42.550;23.120;2023-04-09T09:52:44;92954.50;;;13.41;nan
39681;BME280;26327;42.550;23.120;2023-04-09T09:55:13;92887.97;;;13.24;nan
39681;BME280;26327;42.550;23.120;2023-04-09T09:57:43;92934.97;;;12.12;nan
39681;BME280;26327;42.550;23.120;2023-04-09T10:00:10;92960.41;;;11.74;nan
39681;BME280;26327;42.550;23.120;2023-04-09T10:02:43;92939.13;;;11.49;nan
39681;BME280;26327;42.550;23.120;2023-04-09T10:05:11;92953.81;;;12.14;nan
39681;BME280;26327;42.550;23.120;2023-04-09T10:07:37;92947.94;;;12.55;nan
39681;BME280;26327;42.550;23.120;2023-04-09T10:10:04;92965.06;;;11.79;nan
39681;BME280;26327;42.550;23.120;2023-04-09T10:12:31;92955.19;;;11.89;nan
39681;BME280;26327;42.550;23.120;2023-04-09T10:14:57;92895.78;;;11.06;nan
39681;BME280;26327;42.550;23.120;2023-04-09T10:17:29;92955.22;;;11.09;nan
39681;BME280;26327;42.550;23.120;2023-04-09T10:20:10;92948.66;;;11.27;nan
39681;BME280;26327;42.550;23.120;2023-04-09T10:22:38;92962.03;;;10.65;nan
39681;BME280;26327;42.550;23.120;2023-04-09T10:25:05;92943.34;;;9.87;nan
39681;BME280;26327;42.550;23.120;2023-04-09T10:27:30;92964.19;;;10.24;nan
39681;BME280;26327;42.550;23.120;2023-04-09T10:29:56;92881.75;;;10.18;nan
39681;BME280;26327;42.550;23.120;2023-04-09T10:32:22;92926.97;;;10.47;nan
39681;BME280;26327;42.550;23.120;2023-04-09T10:34:51;92929.78;;;10.22;nan
39681;BME280;26327;42.550;23.120;2023-04-09T10:37:25;92908.69;;;9.79;nan
39681;BME280;26327;42.550;23.120;2023-04-09T10:39:51;92948.66;;;9.70;nan
39681;BME280;26327;42.550;23.120;2023-04-09T10:42:36;92894.28;;;9.77;nan
39681;BME280;26327;42.550;23.120;2023-04-09T10:47:32;92931.69;;;11.46;nan
39681;BME280;26327;42.550;23.120;2023-04-09T10:50:19;92870.56;;;10.55;nan
39681;BME280;26327;42.550;23.120;2023-04-09T10:52:46;92955.31;;;11.00;nan
39681;BME280;26327;42.550;23.120;2023-04-09T10:55:34;92960.00;;;10.90;nan
39681;BME280;26327;42.550;23.120;2023-04-09T10:58:08;92917.56;;;10.46;nan
39681;BME280;26327;42.550;23.120;2023-04-09T11:00:39;92918.66;;;10.95;nan
39681;BME280;26327;42.550;23.120;2023-04-09T11:03:24;92946.00;;;11.57;nan
39681;BME280;26327;42.550;23.120;2023-04-09T11:06:06;92886.06;;;11.86;nan
39681;BME280;26327;42.550;23.120;2023-04-09T11:08:37;92925.16;;;12.36;nan
39681;BME280;26327;42.550;23.120;2023-04-09T11:11:03;92932.88;;;11.14;nan
39681;BME280;26327;42.550;23.120;2023-04-09T11:13:30;92860.75;;;11.38;nan
39681;BME280;26327;42.550;23.120;2023-04-09T11:15:56;92934.72;;;11.35;nan
39681;BME280;26327;42.550;23.120;2023-04-09T11:18:24;92865.53;;;11.55;nan
39681;BME280;26327;42.550;23.120;2023-04-09T11:20:54;92919.91;;;10.55;nan
39681;BME280;26327;42.550;23.120;2023-04-09T11:23:19;92877.16;;;10.87;nan
39681;BME280;26327;42.550;23.120;2023-04-09T11:25:48;92870.63;;;10.91;nan
39681;BME280;26327;42.550;23.120;2023-04-09T11:28:15;92914.13;;;10.30;nan
39681;BME280;26327;42.550;23.120;2023-04-09T11:30:40;92866.97;;;9.66;nan
39681;BME280;26327;42.550;23.120;2023-04-09T11:33:08;92922.41;;;9.88;nan
39681;BME280;26327;42.550;23.120;2023-04-09T11:35:34;92873.47;;;9.62;nan
39681;BME280;26327;42.550;23.120;2023-04-09T11:38:05;92863.31;;;10.13;nan
39681;BME280;26327;42.550;23.120;2023-04-09T11:40:30;92867.25;;;9.71;nan
39681;BME280;26327;42.550;23.120;2023-04-09T11:42:56;92936.31;;;9.72;nan
39681;BME280;26327;42.550;23.120;2023-04-09T11:45:26;92913.72;;;10.19;nan
39681;BME280;26327;42.550;23.120;2023-04-09T11:47:52;92917.03;;;10.80;nan
39681;BME280;26327;42.550;23.120;2023-04-09T11:50:19;92884.13;;;10.87;nan
39681;BME280;26327;42.550;23.120;2023-04-09T11:52:45;92847.97;;;10.56;nan
39681;BME280;26327;42.550;23.120;2023-04-09T11:55:11;92862.47;;;10.65;nan
39681;BME280;26327;42.550;23.120;2023-04-09T11:57:46;92912.66;;;10.95;nan
39681;BME280;26327;42.550;23.120;2023-04-09T12:00:16;92857.56;;;10.55;nan
39681;BME280;26327;42.550;23.120;2023-04-09T12:02:46;92866.78;;;10.43;nan
39681;BME280;26327;42.550;23.120;2023-04-09T12:05:23;92934.91;;;11.33;nan
39681;BME280;26327;42.550;23.120;2023-04-09T12:07:50;92933.66;;;11.29;nan
39681;BME280;26327;42.550;23.120;2023-04-09T12:10:15;92895.38;;;11.23;nan
39681;BME280;26327;42.550;23.120;2023-04-09T12:12:43;92907.00;;;11.06;nan
39681;BME280;26327;42.550;23.120;2023-04-09T12:15:20;92914.75;;;11.21;nan
39681;BME280;26327;42.550;23.120;2023-04-09T12:17:50;92926.53;;;11.17;nan
39681;BME280;26327;42.550;23.120;2023-04-09T12:20:35;92911.00;;;11.23;nan
39681;BME280;26327;42.550;23.120;2023-04-09T12:23:02;92895.88;;;11.48;nan
39681;BME280;26327;42.550;23.120;2023-04-09T12:25:33;92920.53;;;11.74;nan
39681;BME280;26327;42.550;23.120;2023-04-09T12:27:59;92878.50;;;11.34;nan
39681;BME280;26327;42.550;23.120;2023-04-09T12:30:26;92916.59;;;11.78;nan
39681;BME280;26327;42.550;23.120;2023-04-09T12:32:52;92863.16;;;11.60;nan
39681;BME280;26327;42.550;23.120;2023-04-09T12:35:18;92878.22;;;11.44;nan
39681;BME280;26327;42.550;23.120;2023-04-09T12:37:44;92903.56;;;11.92;nan
39681;BME280;26327;42.550;23.120;2023-04-09T12:40:10;92917.06;;;12.03;nan
39681;BME280;26327;42.550;23.120;2023-04-09T12:42:39;92835.66;;;11.73;nan
39681;BME280;26327;42.550;23.120;2023-04-09T12:45:29;92921.00;;;12.20;nan
39681;BME280;26327;42.550;23.120;2023-04-09T12:47:55;92850.78;;;11.41;nan
39681;BME280;26327;42.550;23.120;2023-04-09T12:50:20;92904.41;;;12.00;nan
39681;BME280;26327;42.550;23.120;2023-04-09T12:52:46;92909.59;;;11.78;nan
39681;BME280;26327;42.550;23.120;2023-04-09T12:55:12;92924.56;;;11.76;nan
39681;BME280;26327;42.550;23.120;2023-04-09T12:57:40;92909.19;;;11.60;nan
39681;BME280;26327;42.550;23.120;2023-04-09T13:00:06;92920.03;;;11.63;nan
39681;BME280;26327;42.550;23.120;2023-04-09T13:02:33;92899.41;;;11.41;nan
39681;BME280;26327;42.550;23.120;2023-04-09T13:04:58;92897.78;;;11.97;nan
39681;BME280;26327;42.550;23.120;2023-04-09T13:07:24;92852.63;;;11.83;nan
39681;BME280;26327;42.550;23.120;2023-04-09T13:09:56;92908.34;;;12.38;nan
39681;BME280;26327;42.550;23.120;2023-04-09T13:12:22;92893.38;;;12.25;nan
39681;BME280;26327;42.550;23.120;2023-04-09T13:14:48;92883.28;;;11.88;nan
39681;BME280;26327;42.550;23.120;2023-04-09T13:17:14;92829.84;;;11.49;nan
39681;BME280;26327;42.550;23.120;2023-04-09T13:19:40;92903.00;;;12.25;nan
39681;BME280;26327;42.550;23.120;2023-04-09T13:22:05;92846.94;;;11.58;nan
39681;BME280;26327;42.550;23.120;2023-04-09T13:24:33;92896.88;;;11.32;nan
39681;BME280;26327;42.550;23.120;2023-04-09T13:26:59;92835.72;;;11.00;nan
39681;BME280;26327;42.550;23.120;2023-04-09T13:29:25;92875.50;;;11.16;nan
39681;BME280;26327;42.550;23.120;2023-04-09T13:31:54;92888.81;;;11.27;nan
39681;BME280;26327;42.550;23.120;2023-04-09T13:34:20;92890.44;;;11.43;nan
39681;BME280;26327;42.550;23.120;2023-04-09T13:36:45;92899.72;;;11.52;nan
39681;BME280;26327;42.550;23.120;2023-04-09T13:39:10;92807.69;;;10.81;nan
39681;BME280;26327;42.550;23.120;2023-04-09T13:41:36;92857.34;;;11.37;nan
39681;BME280;26327;42.550;23.120;2023-04-09T13:44:02;92825.13;;;11.38;nan
39681;BME280;26327;42.550;23.120;2023-04-09T13:46:28;92896.78;;;11.98;nan
39681;BME280;26327;42.550;23.120;2023-04-09T13:48:54;92876.19;;;11.82;nan
39681;BME280;26327;42.550;23.120;2023-04-09T13:51:22;92889.72;;;11.92;nan
39681;BME280;26327;42.550;23.120;2023-04-09T13:53:49;92879.91;;;12.15;nan
39681;BME280;26327;42.550;23.120;2023-04-09T13:56:15;92884.31;;;12.43;nan
39681;BME280;26327;42.550;23.120;2023-04-09T13:58:40;92866.66;;;12.38;nan
39681;BME280;26327;42.550;23.120;2023-04-09T14:01:08;92832.78;;;12.10;nan
39681;BME280;26327;42.550;23.120;2023-04-09T14:03:33;92811.00;;;11.68;nan
39681;BME280;26327;42.550;23.120;2023-04-09T14:05:58;92872.94;;;12.22;nan
39681;BME280;26327;42.550;23.120;2023-04-09T14:08:24;92880.22;;;12.06;nan
39681;BME280;26327;42.550;23.120;2023-04-09T14:10:49;92864.00;;;12.32;nan
39681;BME280;26327;42.550;23.120;2023-04-09T14:13:15;92849.38;;;12.31;nan
39681;BME280;26327;42.550;23.120;2023-04-09T14:15:40;92879.72;;;12.45;nan
39681;BME280;26327;42.550;23.120;2023-04-09T14:18:06;92765.56;;;11.43;nan
39681;BME280;26327;42.550;23.120;2023-04-09T14:20:34;92843.81;;;12.12;nan
39681;BME280;26327;42.550;23.120;2023-04-09T14:22:59;92791.78;;;11.91;nan
39681;BME280;26327;42.550;23.120;2023-04-09T14:25:25;92757.38;;;11.46;nan
39681;BME280;26327;42.550;23.120;2023-04-09T14:27:50;92811.50;;;11.57;nan
39681;BME280;26327;42.550;23.120;2023-04-09T14:30:16;92870.00;;;12.04;nan
39681;BME280;26327;42.550;23.120;2023-04-09T14:32:41;92849.25;;;12.17;nan
39681;BME280;26327;42.550;23.120;2023-04-09T14:35:07;92806.22;;;11.93;nan
39681;BME280;26327;42.550;23.120;2023-04-09T14:37:33;92787.28;;;11.57;nan
39681;BME280;26327;42.550;23.120;2023-04-09T14:39:58;92814.72;;;11.59;nan
39681;BME280;26327;42.550;23.120;2023-04-09T14:42:23;92773.78;;;11.25;nan
39681;BME280;26327;42.550;23.120;2023-04-09T14:44:49;92852.91;;;11.95;nan
39681;BME280;26327;42.550;23.120;2023-04-09T14:47:15;92789.34;;;11.40;nan
39681;BME280;26327;42.550;23.120;2023-04-09T14:49:40;92763.31;;;10.97;nan
39681;BME280;26327;42.550;23.120;2023-04-09T14:52:06;92790.19;;;11.04;nan
39681;BME280;26327;42.550;23.120;2023-04-09T14:54:31;92868.13;;;11.19;nan
39681;BME280;26327;42.550;23.120;2023-04-09T14:56:57;92854.56;;;11.39;nan
39681;BME280;26327;42.550;23.120;2023-04-09T14:59:23;92830.97;;;11.04;nan
39681;BME280;26327;42.550;23.120;2023-04-09T15:01:49;92784.25;;;10.75;nan
39681;BME280;26327;42.550;23.120;2023-04-09T15:04:15;92842.09;;;10.98;nan
39681;BME280;26327;42.550;23.120;2023-04-09T15:06:40;92855.91;;;10.84;nan
39681;BME280;26327;42.550;23.120;2023-04-09T15:09:06;92789.56;;;10.22;nan
39681;BME280;26327;42.550;23.120;2023-04-09T15:11:32;92792.97;;;10.52;nan
39681;BME280;26327;42.550;23.120;2023-04-09T15:13:57;92793.97;;;10.36;nan
39681;BME280;26327;42.550;23.120;2023-04-09T15:16:23;92791.19;;;10.38;nan
39681;BME280;26327;42.550;23.120;2023-04-09T15:18:50;92854.84;;;10.34;nan
39681;BME280;26327;42.550;23.120;2023-04-09T15:21:17;92846.53;;;10.24;nan
39681;BME280;26327;42.550;23.120;2023-04-09T15:23:42;92847.19;;;10.40;nan
39681;BME280;26327;42.550;23.120;2023-04-09T15:26:08;92856.22;;;10.59;nan
39681;BME280;26327;42.550;23.120;2023-04-09T15:28:33;92794.38;;;10.10;nan
39681;BME280;26327;42.550;23.120;2023-04-09T15:30:58;92849.00;;;10.17;nan
39681;BME280;26327;42.550;23.120;2023-04-09T15:33:24;92835.66;;;10.05;nan
39681;BME280;26327;42.550;23.120;2023-04-09T15:35:51;92835.00;;;10.41;nan
39681;BME280;26327;42.550;23.120;2023-04-09T15:38:16;92840.53;;;10.38;nan
39681;BME280;26327;42.550;23.120;2023-04-09T15:40:45;92771.34;;;9.93;nan
39681;BME280;26327;42.550;23.120;2023-04-09T15:43:11;92777.22;;;10.24;nan
39681;BME280;26327;42.550;23.120;2023-04-09T15:45:37;92833.63;;;10.60;nan
39681;BME280;26327;42.550;23.120;2023-04-09T15:48:02;92836.25;;;10.45;nan
39681;BME280;26327;42.550;23.120;2023-04-09T15:50:28;92828.81;;;10.57;nan
39681;BME280;26327;42.550;23.120;2023-04-09T15:52:53;92840.59;;;10.74;nan
39681;BME280;26327;42.550;23.120;2023-04-09T15:55:20;92846.78;;;10.73;nan
39681;BME280;26327;42.550;23.120;2023-04-09T15:57:47;92837.13;;;10.67;nan
39681;BME280;26327;42.550;23.120;2023-04-09T16:00:13;92782.47;;;10.16;nan
39681;BME280;26327;42.550;23.120;2023-04-09T16:02:39;92836.31;;;10.37;nan
39681;BME280;26327;42.550;23.120;2023-04-09T16:05:05;92833.06;;;10.79;nan
39681;BME280;26327;42.550;23.120;2023-04-09T16:07:31;92784.38;;;10.52;nan
39681;BME280;26327;42.550;23.120;2023-04-09T16:09:57;92755.19;;;10.05;nan
39681;BME280;26327;42.550;23.120;2023-04-09T16:12:22;92827.44;;;10.61;nan
39681;BME280;26327;42.550;23.120;2023-04-09T16:14:49;92816.84;;;10.18;nan
39681;BME280;26327;42.550;23.120;2023-04-09T16:17:15;92808.38;;;10.24;nan
39681;BME280;26327;42.550;23.120;2023-04-09T16:19:41;92824.94;;;10.38;nan
39681;BME280;26327;42.550;23.120;2023-04-09T16:22:07;92824.78;;;10.25;nan
39681;BME280;26327;42.550;23.120;2023-04-09T16:24:33;92832.13;;;10.51;nan
39681;BME280;26327;42.550;23.120;2023-04-09T16:26:59;92834.47;;;10.46;nan
39681;BME280;26327;42.550;23.120;2023-04-09T16:29:25;92780.66;;;9.87;nan
39681;BME280;26327;42.550;23.120;2023-04-09T16:31:51;92753.19;;;9.78;nan
39681;BME280;26327;42.550;23.120;2023-04-09T16:34:17;92852.78;;;10.29;nan
39681;BME280;26327;42.550;23.120;2023-04-09T16:36:42;92786.72;;;9.79;nan
39681;BME280;26327;42.550;23.120;2023-04-09T16:39:09;92843.34;;;10.14;nan
39681;BME280;26327;42.550;23.120;2023-04-09T16:41:35;92851.22;;;10.05;nan
39681;BME280;26327;42.550;23.120;2023-04-09T16:44:00;92824.69;;;9.81;nan
39681;BME280;26327;42.550;23.120;2023-04-09T16:46:26;92779.72;;;9.51;nan
39681;BME280;26327;42.550;23.120;2023-04-09T16:48:51;92838.91;;;9.85;nan
39681;BME280;26327;42.550;23.120;2023-04-09T16:51:17;92839.19;;;9.90;nan
39681;BME280;26327;42.550;23.120;2023-04-09T16:53:42;92745.84;;;9.29;nan
39681;BME280;26327;42.550;23.120;2023-04-09T16:56:08;92851.19;;;9.53;nan
39681;BME280;26327;42.550;23.120;2023-04-09T16:58:33;92839.28;;;9.36;nan
39681;BME280;26327;42.550;23.120;2023-04-09T17:00:58;92778.84;;;9.35;nan
39681;BME280;26327;42.550;23.120;2023-04-09T17:03:24;92824.41;;;9.75;nan
39681;BME280;26327;42.550;23.120;2023-04-09T17:05:50;92781.72;;;9.40;nan
39681;BME280;26327;42.550;23.120;2023-04-09T17:08:16;92821.84;;;9.53;nan
39681;BME280;26327;42.550;23.120;2023-04-09T17:10:42;92842.00;;;9.20;nan
39681;BME280;26327;42.550;23.120;2023-04-09T17:13:07;92854.16;;;9.65;nan
39681;BME280;26327;42.550;23.120;2023-04-09T17:15:33;92854.00;;;9.66;nan
39681;BME280;26327;42.550;23.120;2023-04-09T17:17:58;92850.06;;;9.70;nan
39681;BME280;26327;42.550;23.120;2023-04-09T17:20:23;92844.31;;;9.60;nan
39681;BME280;26327;42.550;23.120;2023-04-09T17:22:50;92851.28;;;9.60;nan
39681;BME280;26327;42.550;23.120;2023-04-09T17:25:16;92837.78;;;9.41;nan
39681;BME280;26327;42.550;23.120;2023-04-09T17:27:41;92852.91;;;9.61;nan
39681;BME280;26327;42.550;23.120;2023-04-09T17:30:09;92862.97;;;9.78;nan
39681;BME280;26327;42.550;23.120;2023-04-09T17:32:36;92868.69;;;9.74;nan
39681;BME280;26327;42.550;23.120;2023-04-09T17:35:03;92836.97;;;9.41;nan
39681;BME280;26327;42.550;23.120;2023-04-09T17:37:31;92856.91;;;9.49;nan
39681;BME280;26327;42.550;23.120;2023-04-09T17:39:56;92875.72;;;9.42;nan
39681;BME280;26327;42.550;23.120;2023-04-09T17:42:21;92809.56;;;9.01;nan
39681;BME280;26327;42.550;23.120;2023-04-09T17:44:47;92818.97;;;8.71;nan
39681;BME280;26327;42.550;23.120;2023-04-09T17:47:13;92747.94;;;8.26;nan
39681;BME280;26327;42.550;23.120;2023-04-09T17:49:38;92752.44;;;8.32;nan
39681;BME280;26327;42.550;23.120;2023-04-09T17:52:04;92847.16;;;8.66;nan
39681;BME280;26327;42.550;23.120;2023-04-09T17:54:33;92799.13;;;8.55;nan
39681;BME280;26327;42.550;23.120;2023-04-09T17:56:59;92814.53;;;8.79;nan
39681;BME280;26327;42.550;23.120;2023-04-09T17:59:25;92865.94;;;8.99;nan
39681;BME280;26327;42.550;23.120;2023-04-09T18:01:52;92874.84;;;9.27;nan
39681;BME280;26327;42.550;23.120;2023-04-09T18:04:19;92824.38;;;8.84;nan
39681;BME280;26327;42.550;23.120;2023-04-09T18:06:45;92826.00;;;8.85;nan
39681;BME280;26327;42.550;23.120;2023-04-09T18:09:11;92822.69;;;8.99;nan
39681;BME280;26327;42.550;23.120;2023-04-09T18:11:37;92877.78;;;9.24;nan
39681;BME280;26327;42.550;23.120;2023-04-09T18:14:03;92881.06;;;9.18;nan
39681;BME280;26327;42.550;23.120;2023-04-09T18:16:33;92891.44;;;9.41;nan
39681;BME280;26327;42.550;23.120;2023-04-09T18:18:58;92889.66;;;9.41;nan
39681;BME280;26327;42.550;23.120;2023-04-09T18:21:23;92805.84;;;8.72;nan
39681;BME280;26327;42.550;23.120;2023-04-09T18:23:49;92838.56;;;8.96;nan
39681;BME280;26327;42.550;23.120;2023-04-09T18:26:14;92884.34;;;9.12;nan
39681;BME280;26327;42.550;23.120;2023-04-09T18:28:40;92886.88;;;9.43;nan
39681;BME280;26327;42.550;23.120;2023-04-09T18:31:06;92893.19;;;9.49;nan
39681;BME280;26327;42.550;23.120;2023-04-09T18:33:31;92846.97;;;8.98;nan
39681;BME280;26327;42.550;23.120;2023-04-09T18:35:59;92877.50;;;9.42;nan
39681;BME280;26327;42.550;23.120;2023-04-09T18:38:24;92912.00;;;9.42;nan
39681;BME280;26327;42.550;23.120;2023-04-09T18:40:52;92853.53;;;8.86;nan
39681;BME280;26327;42.550;23.120;2023-04-09T18:43:18;92907.31;;;9.15;nan
39681;BME280;26327;42.550;23.120;2023-04-09T18:45:43;92839.22;;;8.67;nan
39681;BME280;26327;42.550;23.120;2023-04-09T18:48:09;92846.25;;;8.81;nan
39681;BME280;26327;42.550;23.120;2023-04-09T18:50:34;92910.09;;;9.13;nan
39681;BME280;26327;42.550;23.120;2023-04-09T18:53:00;92900.75;;;9.04;nan
39681;BME280;26327;42.550;23.120;2023-04-09T18:55:27;92895.28;;;8.91;nan
39681;BME280;26327;42.550;23.120;2023-04-09T18:57:52;92894.72;;;8.73;nan
39681;BME280;26327;42.550;23.120;2023-04-09T19:00:18;92842.25;;;8.24;nan
39681;BME280;26327;42.550;23.120;2023-04-09T19:02:44;92848.06;;;8.34;nan
39681;BME280;26327;42.550;23.120;2023-04-09T19:05:10;92922.63;;;8.94;nan
39681;BME280;26327;42.550;23.120;2023-04-09T19:07:36;92913.31;;;9.15;nan
39681;BME280;26327;42.550;23.120;2023-04-09T19:10:02;92899.66;;;8.91;nan
39681;BME280;26327;42.550;23.120;2023-04-09T19:12:27;92916.00;;;8.99;nan
39681;BME280;26327;42.550;23.120;2023-04-09T19:14:53;92887.50;;;8.91;nan
39681;BME280;26327;42.550;23.120;2023-04-09T19:17:18;92848.16;;;8.57;nan
39681;BME280;26327;42.550;23.120;2023-04-09T19:19:44;92883.69;;;8.79;nan
39681;BME280;26327;42.550;23.120;2023-04-09T19:22:09;92822.66;;;8.37;nan
39681;BME280;26327;42.550;23.120;2023-04-09T19:24:35;92909.50;;;9.03;nan
39681;BME280;26327;42.550;23.120;2023-04-09T19:27:01;92884.66;;;8.78;nan
39681;BME280;26327;42.550;23.120;2023-04-09T19:29:34;92898.16;;;8.96;nan
39681;BME280;26327;42.550;23.120;2023-04-09T19:32:00;92852.94;;;8.76;nan
39681;BME280;26327;42.550;23.120;2023-04-09T19:34:25;92835.50;;;9.01;nan
39681;BME280;26327;42.550;23.120;2023-04-09T19:36:51;92852.50;;;8.95;nan
39681;BME280;26327;42.550;23.120;2023-04-09T19:39:16;92844.78;;;8.87;nan
39681;BME280;26327;42.550;23.120;2023-04-09T19:41:42;92884.63;;;8.86;nan
39681;BME280;26327;42.550;23.120;2023-04-09T19:44:08;92879.13;;;8.81;nan
39681;BME280;26327;42.550;23.120;2023-04-09T19:46:34;92842.00;;;8.49;nan
39681;BME280;26327;42.550;23.120;2023-04-09T19:48:59;92883.25;;;8.98;nan
39681;BME280;26327;42.550;23.120;2023-04-09T19:51:25;92907.03;;;9.10;nan
39681;BME280;26327;42.550;23.120;2023-04-09T19:53:51;92882.91;;;9.09;nan
39681;BME280;26327;42.550;23.120;2023-04-09T19:56:17;92881.16;;;8.94;nan
39681;BME280;26327;42.550;23.120;2023-04-09T19:58:43;92840.56;;;8.47;nan
39681;BME280;26327;42.550;23.120;2023-04-09T20:01:09;92811.25;;;7.99;nan
39681;BME280;26327;42.550;23.120;2023-04-09T20:03:34;92881.72;;;8.34;nan
39681;BME280;26327;42.550;23.120;2023-04-09T20:06:05;92834.72;;;7.89;nan
39681;BME280;26327;42.550;23.120;2023-04-09T20:08:30;92879.78;;;8.36;nan
39681;BME280;26327;42.550;23.120;2023-04-09T20:10:56;92798.31;;;7.91;nan
39681;BME280;26327;42.550;23.120;2023-04-09T20:13:21;92883.78;;;8.55;nan
39681;BME280;26327;42.550;23.120;2023-04-09T20:15:47;92870.97;;;8.61;nan
39681;BME280;26327;42.550;23.120;2023-04-09T20:18:14;92868.06;;;8.56;nan
39681;BME280;26327;42.550;23.120;2023-04-09T20:20:39;92846.25;;;8.42;nan
39681;BME280;26327;42.550;23.120;2023-04-09T20:23:04;92787.13;;;8.15;nan
39681;BME280;26327;42.550;23.120;2023-04-09T20:25:30;92865.25;;;8.74;nan
39681;BME280;26327;42.550;23.120;2023-04-09T20:27:59;92873.94;;;8.81;nan
39681;BME280;26327;42.550;23.120;2023-04-09T20:30:26;92849.94;;;8.56;nan
39681;BME280;26327;42.550;23.120;2023-04-09T20:32:51;92803.56;;;8.38;nan
39681;BME280;26327;42.550;23.120;2023-04-09T20:35:17;92856.50;;;8.75;nan
39681;BME280;26327;42.550;23.120;2023-04-09T20:37:42;92801.38;;;8.11;nan
39681;BME280;26327;42.550;23.120;2023-04-09T20:40:09;92866.50;;;8.39;nan
39681;BME280;26327;42.550;23.120;2023-04-09T20:42:35;92782.06;;;7.42;nan
39681;BME280;26327;42.550;23.120;2023-04-09T20:45:00;92867.50;;;7.97;nan
39681;BME280;26327;42.550;23.120;2023-04-09T20:47:25;92853.75;;;8.13;nan
39681;BME280;26327;42.550;23.120;2023-04-09T20:49:52;92842.91;;;8.17;nan
39681;BME280;26327;42.550;23.120;2023-04-09T20:52:19;92696.13;;;7.40;nan
39681;BME280;26327;42.550;23.120;2023-04-09T20:54:45;92818.19;;;8.07;nan
39681;BME280;26327;42.550;23.120;2023-04-09T20:57:10;92794.94;;;7.90;nan
39681;BME280;26327;42.550;23.120;2023-04-09T20:59:35;92859.69;;;8.30;nan
39681;BME280;26327;42.550;23.120;2023-04-09T21:02:02;92798.81;;;7.86;nan
39681;BME280;26327;42.550;23.120;2023-04-09T21:04:27;92870.38;;;8.35;nan
39681;BME280;26327;42.550;23.120;2023-04-09T21:06:52;92870.06;;;8.38;nan